createdAt,value
2023-04-16T00:01:36.262Z,4.88
2023-04-16T00:04:03.842Z,4.15
2023-04-16T00:06:31.845Z,3.80
2023-04-16T00:08:58.736Z,4.85
2023-04-16T00:11:25.627Z,4.25
2023-04-16T00:13:52.447Z,4.93
2023-04-16T00:16:19.279Z,4.13
2023-04-16T00:18:46.569Z,4.32
2023-04-16T00:21:13.401Z,5.53
2023-04-16T00:23:40.481Z,5.82
2023-04-16T00:26:08.249Z,5.25
2023-04-16T00:28:35.203Z,5.47
2023-04-16T00:31:02.215Z,5.50
2023-04-16T00:33:30.211Z,5.70
2023-04-16T00:35:57.158Z,5.90
2023-04-16T00:38:24.088Z,5.22
2023-04-16T00:40:51.078Z,5.47
2023-04-16T00:43:23.060Z,6.85
2023-04-16T00:45:49.868Z,5.68
2023-04-16T00:48:16.789Z,6.32
2023-04-16T00:50:43.662Z,6.50
2023-04-16T00:53:10.508Z,5.95
2023-04-16T00:55:37.475Z,6.88
2023-04-16T00:58:04.273Z,6.25
2023-04-16T01:00:31.196Z,6.57
2023-04-16T01:02:58.792Z,6.40
2023-04-16T01:05:25.947Z,6.40
2023-04-16T01:07:52.806Z,6.75
2023-04-16T01:10:19.728Z,6.53
2023-04-16T01:12:46.652Z,6.80
2023-04-16T01:15:13.544Z,6.60
2023-04-16T01:17:41.321Z,6.50
2023-04-16T01:20:08.411Z,7.25
2023-04-16T01:22:35.323Z,6.93
2023-04-16T01:25:02.206Z,7.22
2023-04-16T01:27:29.440Z,7.38
2023-04-16T01:29:56.424Z,7.72
2023-04-16T01:32:33.075Z,7.65
2023-04-16T01:34:59.910Z,7.63
2023-04-16T01:37:26.786Z,6.35
2023-04-16T01:39:54.049Z,6.65
2023-04-16T01:42:20.881Z,7.75
2023-04-16T01:44:49.256Z,7.05
2023-04-16T01:47:16.428Z,7.22
2023-04-16T01:49:45.656Z,7.45
2023-04-16T01:52:12.470Z,6.78
2023-04-16T01:54:39.297Z,7.32
2023-04-16T01:57:06.107Z,7.68
2023-04-16T01:59:33.149Z,7.13
2023-04-16T02:02:07.175Z,6.80
2023-04-16T02:04:34.082Z,7.30
2023-04-16T02:07:00.884Z,7.43
2023-04-16T02:09:27.763Z,6.47
2023-04-16T02:11:55.248Z,6.60
2023-04-16T02:14:25.480Z,6.30
2023-04-16T02:16:52.536Z,6.85
2023-04-16T02:19:36.403Z,6.63
2023-04-16T02:22:03.608Z,6.90
2023-04-16T02:24:30.607Z,6.70
2023-04-16T02:26:59.116Z,7.53
2023-04-16T02:29:26.061Z,7.03
2023-04-16T02:32:00.526Z,6.85
2023-04-16T02:34:29.133Z,8.20
2023-04-16T02:36:58.282Z,7.70
2023-04-16T02:39:25.502Z,6.78
2023-04-16T02:41:53.386Z,7.47
2023-04-16T02:44:21.645Z,7.28
2023-04-16T02:46:48.487Z,9.20
2023-04-16T02:49:15.641Z,9.60
2023-04-16T02:51:42.476Z,10.05
2023-04-16T02:54:09.320Z,11.00
2023-04-16T02:56:36.351Z,11.48
2023-04-16T02:59:03.226Z,11.60
2023-04-16T03:01:30.391Z,13.35
2023-04-16T03:03:57.507Z,13.95
2023-04-16T03:06:24.398Z,12.48
2023-04-16T03:08:51.220Z,16.25
2023-04-16T03:11:18.125Z,16.67
2023-04-16T03:13:45.244Z,17.45
2023-04-16T03:16:12.187Z,16.90
2023-04-16T03:18:39.384Z,17.65
2023-04-16T03:21:06.322Z,18.27
2023-04-16T03:23:33.631Z,16.15
2023-04-16T03:26:00.543Z,17.13
2023-04-16T03:28:28.086Z,16.73
2023-04-16T03:30:54.930Z,18.75
2023-04-16T03:33:22.703Z,18.50
2023-04-16T03:35:57.612Z,18.95
2023-04-16T03:38:26.745Z,19.55
2023-04-16T03:40:56.121Z,19.10
2023-04-16T03:43:23.071Z,23.73
2023-04-16T03:45:50.233Z,19.65
2023-04-16T03:48:19.912Z,19.83
2023-04-16T03:50:49.615Z,18.27
2023-04-16T03:53:19.031Z,18.80
2023-04-16T03:55:50.505Z,18.73
2023-04-16T03:58:17.899Z,18.63
2023-04-16T04:00:44.738Z,18.40
2023-04-16T04:03:17.263Z,18.80
2023-04-16T04:05:46.128Z,18.80
2023-04-16T04:08:15.970Z,21.90
2023-04-16T04:10:42.788Z,18.88
2023-04-16T04:13:11.534Z,18.73
2023-04-16T04:15:38.577Z,20.13
2023-04-16T04:18:05.615Z,19.70
2023-04-16T04:20:32.682Z,19.13
2023-04-16T04:22:59.578Z,19.38
2023-04-16T04:25:27.236Z,19.65
2023-04-16T04:27:54.071Z,19.67
2023-04-16T04:30:20.926Z,18.73
2023-04-16T04:32:47.804Z,20.13
2023-04-16T04:35:16.315Z,18.95
2023-04-16T04:37:43.341Z,19.73
2023-04-16T04:40:20.602Z,19.05
2023-04-16T04:42:47.548Z,19.23
2023-04-16T04:45:15.297Z,18.55
2023-04-16T04:47:42.171Z,19.80
2023-04-16T04:50:09.642Z,20.50
2023-04-16T04:52:36.757Z,19.38
2023-04-16T04:55:03.884Z,18.88
2023-04-16T04:57:30.946Z,18.52
2023-04-16T04:59:58.103Z,19.92
2023-04-16T05:02:25.075Z,18.95
2023-04-16T05:04:52.036Z,19.05
2023-04-16T05:07:18.846Z,18.50
2023-04-16T05:09:45.805Z,19.30
2023-04-16T05:12:12.580Z,17.88
2023-04-16T05:14:39.395Z,19.42
2023-04-16T05:17:08.065Z,19.35
2023-04-16T05:19:35.362Z,18.45
2023-04-16T05:22:02.747Z,17.83
2023-04-16T05:24:29.620Z,17.10
2023-04-16T05:26:57.310Z,18.02
2023-04-16T05:29:24.266Z,18.38
2023-04-16T05:31:51.152Z,18.95
2023-04-16T05:34:18.024Z,19.05
2023-04-16T05:36:44.841Z,17.23
2023-04-16T05:39:11.904Z,17.02
2023-04-16T05:41:38.782Z,16.77
2023-04-16T05:44:05.779Z,16.83
2023-04-16T05:46:32.740Z,17.15
2023-04-16T05:48:59.649Z,18.13
2023-04-16T05:51:27.683Z,18.05
2023-04-16T05:53:54.547Z,18.10
2023-04-16T05:56:22.008Z,17.98
2023-04-16T05:58:48.849Z,19.13
2023-04-16T06:01:15.810Z,19.00
2023-04-16T06:03:42.745Z,18.70
2023-04-16T06:06:09.609Z,19.85
2023-04-16T06:08:36.478Z,22.02
2023-04-16T06:11:03.701Z,23.17
2023-04-16T06:13:30.970Z,25.90
2023-04-16T06:15:57.783Z,23.10
2023-04-16T06:18:24.675Z,23.05
2023-04-16T06:20:51.545Z,19.67
2023-04-16T06:23:18.357Z,21.95
2023-04-16T06:25:45.269Z,18.48
2023-04-16T06:28:12.082Z,20.00
2023-04-16T06:30:39.499Z,18.23
2023-04-16T06:33:06.303Z,19.92
2023-04-16T06:35:33.174Z,18.33
2023-04-16T06:37:59.997Z,18.20
2023-04-16T06:40:26.892Z,17.10
2023-04-16T06:42:54.124Z,15.02
2023-04-16T06:45:21.052Z,14.20
2023-04-16T06:47:53.788Z,12.07
2023-04-16T06:50:21.317Z,12.63
2023-04-16T06:52:48.148Z,12.77
2023-04-16T06:55:15.117Z,12.77
2023-04-16T06:57:42.002Z,12.63
2023-04-16T07:00:09.271Z,12.82
2023-04-16T07:02:36.196Z,9.70
2023-04-16T07:05:03.241Z,8.93
2023-04-16T07:07:31.668Z,10.13
2023-04-16T07:10:00.227Z,11.18
2023-04-16T07:12:27.291Z,7.70
2023-04-16T07:14:54.192Z,10.45
2023-04-16T07:17:21.037Z,9.98
2023-04-16T07:19:47.957Z,8.10
2023-04-16T07:22:14.780Z,9.13
2023-04-16T07:24:41.633Z,7.45
2023-04-16T07:27:08.409Z,8.15
2023-04-16T07:29:35.369Z,6.93
2023-04-16T07:32:02.241Z,7.40
2023-04-16T07:34:29.131Z,6.90
2023-04-16T07:36:56.292Z,8.00
2023-04-16T07:39:23.101Z,8.75
2023-04-16T07:41:49.939Z,12.00
2023-04-16T07:44:17.196Z,9.88
2023-04-16T07:46:47.369Z,8.85
2023-04-16T07:49:14.807Z,8.80
2023-04-16T07:51:41.615Z,8.18
2023-04-16T07:54:08.432Z,7.50
2023-04-16T07:56:35.662Z,7.80
2023-04-16T07:59:11.109Z,8.10
2023-04-16T08:01:46.048Z,7.60
2023-04-16T08:04:14.321Z,7.38
2023-04-16T08:06:41.361Z,8.27
2023-04-16T08:09:08.478Z,7.85
2023-04-16T08:11:35.649Z,8.88
2023-04-16T08:14:02.557Z,8.90
2023-04-16T08:16:29.350Z,8.18
2023-04-16T08:18:56.159Z,8.18
2023-04-16T08:21:22.951Z,8.82
2023-04-16T08:23:49.752Z,8.32
2023-04-16T08:26:17.541Z,8.80
2023-04-16T08:28:44.370Z,8.40
2023-04-16T08:31:11.373Z,9.60
2023-04-16T08:33:38.249Z,10.05
2023-04-16T08:36:05.582Z,9.07
2023-04-16T08:38:32.428Z,14.50
2023-04-16T08:41:02.535Z,9.55
2023-04-16T08:43:29.417Z,8.85
2023-04-16T08:45:57.047Z,10.10
2023-04-16T08:48:23.957Z,9.45
2023-04-16T08:50:52.489Z,13.23
2023-04-16T08:53:23.309Z,10.43
2023-04-16T08:55:50.722Z,10.82
2023-04-16T08:58:22.393Z,14.10
2023-04-16T09:00:49.344Z,11.05
2023-04-16T09:03:16.676Z,11.85
2023-04-16T09:05:43.779Z,9.20
2023-04-16T09:08:10.664Z,9.32
2023-04-16T09:10:37.467Z,11.00
2023-04-16T09:13:04.407Z,11.68
2023-04-16T09:15:31.720Z,11.15
2023-04-16T09:17:59.729Z,9.75
2023-04-16T09:20:26.615Z,9.88
2023-04-16T09:22:53.439Z,8.98
2023-04-16T09:25:22.120Z,10.18
2023-04-16T09:27:56.912Z,8.48
2023-04-16T09:30:33.348Z,8.27
2023-04-16T09:33:23.215Z,9.05
2023-04-16T09:35:53.761Z,9.05
2023-04-16T09:38:20.801Z,9.48
2023-04-16T09:40:47.843Z,8.90
2023-04-16T09:43:15.803Z,9.25
2023-04-16T09:45:50.825Z,9.45
2023-04-16T09:48:30.017Z,9.40
2023-04-16T09:50:57.060Z,9.32
2023-04-16T09:53:28.126Z,9.80
2023-04-16T09:55:58.821Z,9.68
2023-04-16T09:58:25.816Z,10.15
2023-04-16T10:00:57.412Z,8.15
2023-04-16T10:03:34.480Z,10.30
2023-04-16T10:06:09.275Z,10.07
2023-04-16T10:08:36.329Z,10.57
2023-04-16T10:11:03.354Z,14.07
2023-04-16T10:13:31.289Z,11.30
2023-04-16T10:15:58.813Z,12.93
2023-04-16T10:18:25.728Z,16.27
2023-04-16T10:20:52.550Z,12.50
2023-04-16T10:23:21.663Z,27.30
2023-04-16T10:25:49.525Z,18.10
2023-04-16T10:28:16.944Z,12.88
2023-04-16T10:30:52.776Z,12.27
2023-04-16T10:33:26.848Z,11.35
2023-04-16T10:36:09.916Z,12.13
2023-04-16T10:38:39.397Z,10.45
2023-04-16T10:41:06.712Z,9.73
2023-04-16T10:43:40.603Z,11.27
2023-04-16T10:46:24.795Z,11.43
2023-04-16T10:48:53.875Z,10.45
2023-04-16T10:51:31.448Z,10.05
2023-04-16T10:54:14.598Z,10.07
2023-04-16T10:56:41.516Z,8.05
2023-04-16T10:59:10.378Z,8.43
2023-04-16T11:01:41.065Z,8.32
2023-04-16T11:04:20.303Z,6.88
2023-04-16T11:07:15.564Z,7.80
2023-04-16T11:09:54.453Z,8.18
2023-04-16T11:12:27.209Z,8.85
2023-04-16T11:14:56.285Z,7.63
2023-04-16T11:17:23.441Z,8.38
2023-04-16T11:19:50.435Z,8.65
2023-04-16T11:22:20.499Z,8.02
2023-04-16T11:24:47.435Z,7.22
2023-04-16T11:27:15.245Z,6.32
2023-04-16T11:29:42.145Z,7.28
2023-04-16T11:32:09.222Z,6.03
2023-04-16T11:34:44.850Z,4.70
2023-04-16T11:37:11.679Z,4.55
2023-04-16T11:39:53.290Z,4.22
2023-04-16T11:42:22.698Z,4.00
2023-04-16T11:44:56.777Z,4.95
2023-04-16T11:47:24.151Z,5.53
2023-04-16T11:49:51.551Z,5.30
2023-04-16T11:52:29.071Z,4.72
2023-04-16T11:54:56.375Z,3.88
2023-04-16T11:57:30.456Z,5.50
2023-04-16T12:00:01.635Z,4.32
2023-04-16T12:02:46.345Z,4.90
2023-04-16T12:05:33.885Z,4.47
2023-04-16T12:08:07.266Z,4.72
2023-04-16T12:10:35.790Z,5.40
2023-04-16T12:13:15.724Z,5.93
2023-04-16T12:15:56.156Z,6.18
2023-04-16T12:18:24.575Z,6.07
2023-04-16T12:20:51.547Z,7.55
2023-04-16T12:23:28.850Z,7.60
2023-04-16T12:25:55.730Z,7.38
2023-04-16T12:28:30.248Z,7.95
2023-04-16T12:30:57.672Z,8.77
2023-04-16T12:33:24.522Z,8.73
2023-04-16T12:35:51.408Z,7.57
2023-04-16T12:38:18.272Z,7.07
2023-04-16T12:40:45.449Z,5.68
2023-04-16T12:43:12.373Z,5.55
2023-04-16T12:45:42.209Z,5.38
2023-04-16T12:48:09.017Z,5.60
2023-04-16T12:50:35.814Z,5.05
2023-04-16T12:53:02.609Z,5.95
2023-04-16T12:55:29.479Z,6.75
2023-04-16T12:57:56.448Z,7.20
2023-04-16T13:00:23.561Z,8.80
2023-04-16T13:02:50.461Z,9.52
2023-04-16T13:05:19.296Z,10.65
2023-04-16T13:07:46.327Z,10.73
2023-04-16T13:10:13.820Z,11.77
2023-04-16T13:12:40.709Z,11.77
2023-04-16T13:15:08.215Z,12.00
2023-04-16T13:17:35.140Z,11.85
2023-04-16T13:20:02.001Z,11.23
2023-04-16T13:22:28.805Z,12.70
2023-04-16T13:24:55.622Z,11.73
2023-04-16T13:27:22.471Z,11.27
2023-04-16T13:29:49.319Z,13.27
2023-04-16T13:32:16.150Z,13.13
2023-04-16T13:34:42.989Z,13.32
2023-04-16T13:37:09.806Z,13.25
2023-04-16T13:39:36.717Z,12.23
2023-04-16T13:42:03.567Z,12.45
2023-04-16T13:44:30.466Z,12.98
2023-04-16T13:46:57.482Z,13.88
2023-04-16T13:49:24.465Z,13.77
2023-04-16T13:51:51.288Z,13.57
2023-04-16T13:54:18.079Z,14.75
2023-04-16T13:56:44.973Z,14.05
2023-04-16T13:59:11.917Z,13.63
2023-04-16T14:01:38.804Z,17.23
2023-04-16T14:04:07.120Z,16.67
2023-04-16T14:06:34.492Z,15.40
2023-04-16T14:09:01.888Z,15.60
2023-04-16T14:11:28.846Z,14.95
2023-04-16T14:13:55.882Z,14.38
2023-04-16T14:16:23.001Z,14.23
2023-04-16T14:18:51.807Z,15.05
2023-04-16T14:21:18.771Z,18.85
2023-04-16T14:23:45.642Z,17.90
2023-04-16T14:26:12.465Z,14.55
2023-04-16T14:28:40.844Z,18.17
2023-04-16T14:31:07.752Z,14.68
2023-04-16T14:33:34.615Z,14.90
2023-04-16T14:36:03.204Z,15.60
2023-04-16T14:38:31.219Z,17.00
2023-04-16T14:40:58.155Z,20.17
2023-04-16T14:43:25.008Z,21.60
2023-04-16T14:45:52.831Z,15.95
2023-04-16T14:48:19.736Z,17.02
2023-04-16T14:50:46.639Z,17.10
2023-04-16T14:53:13.461Z,16.88
2023-04-16T14:55:40.363Z,14.55
2023-04-16T14:58:07.281Z,14.35
2023-04-16T15:00:37.577Z,15.02
2023-04-16T15:03:05.162Z,14.43
2023-04-16T15:05:32.220Z,14.07
2023-04-16T15:07:59.145Z,13.57
2023-04-16T15:10:26.073Z,13.82
2023-04-16T15:12:52.864Z,13.93
2023-04-16T15:15:19.790Z,13.13
2023-04-16T15:17:46.791Z,13.32
2023-04-16T15:20:13.815Z,17.38
2023-04-16T15:22:40.709Z,15.27
2023-04-16T15:25:08.193Z,16.05
2023-04-16T15:27:35.067Z,17.58
2023-04-16T15:30:02.130Z,15.27
2023-04-16T15:32:29.114Z,15.32
2023-04-16T15:34:55.980Z,15.30
2023-04-16T15:37:22.861Z,14.23
2023-04-16T15:39:49.937Z,14.88
2023-04-16T15:42:16.835Z,15.50
2023-04-16T15:44:43.754Z,14.55
2023-04-16T15:47:10.846Z,15.90
2023-04-16T15:49:37.789Z,14.80
2023-04-16T15:52:04.882Z,15.73
2023-04-16T15:54:32.040Z,13.80
2023-04-16T15:56:59.102Z,14.20
2023-04-16T15:59:26.777Z,15.18
2023-04-16T16:01:53.790Z,14.40
2023-04-16T16:04:23.141Z,16.35
2023-04-16T16:06:50.795Z,13.32
2023-04-16T16:09:17.938Z,15.15
2023-04-16T16:11:44.792Z,14.90
2023-04-16T16:14:11.828Z,17.40
2023-04-16T16:16:39.823Z,17.08
2023-04-16T16:19:06.995Z,15.25
2023-04-16T16:21:34.006Z,14.98
2023-04-16T16:24:01.174Z,15.43
2023-04-16T16:26:28.274Z,17.38
2023-04-16T16:28:55.285Z,17.20
2023-04-16T16:31:22.121Z,15.35
2023-04-16T16:33:49.167Z,15.82
2023-04-16T16:36:16.161Z,16.95
2023-04-16T16:38:43.080Z,18.35
2023-04-16T16:41:09.916Z,19.52
2023-04-16T16:43:36.789Z,20.55
2023-04-16T16:46:03.905Z,20.23
2023-04-16T16:48:38.490Z,18.27
2023-04-16T16:51:11.574Z,17.08
2023-04-16T16:53:39.528Z,18.85
2023-04-16T16:56:06.871Z,17.38
2023-04-16T16:58:33.767Z,15.65
2023-04-16T17:01:00.774Z,16.00
2023-04-16T17:03:27.760Z,15.07
2023-04-16T17:05:54.808Z,15.98
2023-04-16T17:08:21.611Z,17.02
2023-04-16T17:10:48.595Z,18.20
2023-04-16T17:13:19.710Z,17.05
2023-04-16T17:15:46.945Z,15.77
2023-04-16T17:18:13.901Z,16.08
2023-04-16T17:20:41.050Z,15.07
2023-04-16T17:23:07.976Z,15.20
2023-04-16T17:25:34.814Z,15.45
2023-04-16T17:28:02.043Z,14.82
2023-04-16T17:30:31.097Z,15.30
2023-04-16T17:32:57.994Z,17.17
2023-04-16T17:35:25.040Z,17.42
2023-04-16T17:37:52.002Z,15.23
2023-04-16T17:40:18.979Z,14.52
2023-04-16T17:42:46.181Z,14.20
2023-04-16T17:45:13.406Z,15.48
2023-04-16T17:47:40.706Z,17.05
2023-04-16T17:50:09.223Z,17.20
2023-04-16T17:52:37.509Z,17.15
2023-04-16T17:55:05.944Z,13.82
2023-04-16T17:57:32.771Z,14.95
2023-04-16T17:59:59.648Z,15.10
2023-04-16T18:02:26.659Z,18.08
2023-04-16T18:04:53.856Z,16.30
2023-04-16T18:07:20.982Z,22.98
2023-04-16T18:09:47.925Z,19.45
2023-04-16T18:12:14.930Z,18.95
2023-04-16T18:14:45.105Z,19.08
2023-04-16T18:17:13.055Z,19.13
2023-04-16T18:19:41.349Z,19.10
2023-04-16T18:22:08.412Z,22.23
2023-04-16T18:24:36.568Z,23.38
2023-04-16T18:27:03.825Z,20.80
2023-04-16T18:29:33.678Z,21.02
2023-04-16T18:32:04.167Z,19.60
2023-04-16T18:34:32.448Z,15.70
2023-04-16T18:36:59.382Z,13.00
2023-04-16T18:39:26.474Z,14.57
2023-04-16T18:41:54.346Z,13.23
2023-04-16T18:44:21.610Z,13.85
2023-04-16T18:46:48.586Z,15.88
2023-04-16T18:49:15.760Z,15.05
2023-04-16T18:51:42.602Z,14.55
2023-04-16T18:54:09.444Z,16.35
2023-04-16T18:56:36.834Z,17.92
2023-04-16T18:59:03.788Z,15.43
2023-04-16T19:01:31.065Z,15.98
2023-04-16T19:03:58.156Z,14.00
2023-04-16T19:06:25.084Z,14.07
2023-04-16T19:08:52.426Z,17.67
2023-04-16T19:11:19.337Z,17.85
2023-04-16T19:13:46.380Z,17.48
2023-04-16T19:16:13.323Z,18.08
2023-04-16T19:18:40.324Z,17.35
2023-04-16T19:21:07.367Z,15.43
2023-04-16T19:23:34.316Z,17.45
2023-04-16T19:26:01.734Z,16.83
2023-04-16T19:28:28.795Z,16.63
2023-04-16T19:30:56.040Z,17.92
2023-04-16T19:33:23.052Z,17.27
2023-04-16T19:35:49.906Z,17.35
2023-04-16T19:38:16.708Z,17.15
2023-04-16T19:40:47.887Z,18.23
2023-04-16T19:43:15.066Z,17.95
2023-04-16T19:45:46.193Z,15.80
2023-04-16T19:48:13.293Z,16.27
2023-04-16T19:50:42.133Z,15.00
2023-04-16T19:53:10.588Z,16.02
2023-04-16T19:55:39.541Z,15.63
2023-04-16T19:58:06.552Z,16.10
2023-04-16T20:00:39.401Z,18.98
2023-04-16T20:03:06.399Z,16.20
2023-04-16T20:05:33.342Z,17.65
2023-04-16T20:08:00.362Z,15.98
2023-04-16T20:10:27.834Z,16.45
2023-04-16T20:12:54.651Z,17.27
2023-04-16T20:15:22.745Z,16.45
2023-04-16T20:17:49.744Z,15.65
2023-04-16T20:20:17.092Z,16.65
2023-04-16T20:22:43.994Z,16.67
2023-04-16T20:25:11.477Z,17.67
2023-04-16T20:27:38.430Z,16.50
2023-04-16T20:30:06.333Z,17.55
2023-04-16T20:32:33.401Z,17.20
2023-04-16T20:35:00.345Z,16.15
2023-04-16T20:37:29.100Z,16.63
2023-04-16T20:39:56.314Z,16.02
2023-04-16T20:42:23.507Z,17.00
2023-04-16T20:44:50.658Z,18.38
2023-04-16T20:47:17.543Z,17.92
2023-04-16T20:49:47.828Z,17.40
2023-04-16T20:52:14.754Z,19.20
2023-04-16T20:54:41.584Z,20.20
2023-04-16T20:57:08.383Z,19.25
2023-04-16T20:59:36.903Z,19.73
2023-04-16T21:02:03.907Z,20.08
2023-04-16T21:04:31.000Z,18.90
2023-04-16T21:06:58.066Z,20.20
2023-04-16T21:09:24.893Z,21.17
2023-04-16T21:11:51.729Z,22.15
2023-04-16T21:14:18.681Z,19.58
2023-04-16T21:16:45.568Z,19.83
2023-04-16T21:19:12.496Z,19.13
2023-04-16T21:21:39.706Z,22.35
2023-04-16T21:24:06.968Z,21.13
2023-04-16T21:26:33.874Z,22.08
2023-04-16T21:29:00.705Z,22.35
2023-04-16T21:31:27.693Z,23.65
2023-04-16T21:33:54.567Z,23.55
2023-04-16T21:36:21.406Z,25.20
2023-04-16T21:38:48.265Z,22.95
2023-04-16T21:41:15.071Z,23.70
2023-04-16T21:43:41.942Z,23.02
2023-04-16T21:46:08.753Z,22.65
2023-04-16T21:48:35.640Z,22.77
2023-04-16T21:51:07.013Z,23.30
2023-04-16T21:53:34.106Z,22.08
2023-04-16T21:56:01.020Z,23.98
2023-04-16T21:58:27.985Z,21.90
2023-04-16T22:00:54.901Z,22.10
2023-04-16T22:03:30.466Z,22.13
2023-04-16T22:06:03.312Z,22.38
2023-04-16T22:08:30.616Z,20.33
2023-04-16T22:10:59.282Z,22.83
2023-04-16T22:13:26.439Z,23.65
2023-04-16T22:15:54.391Z,21.00
2023-04-16T22:18:21.289Z,23.02
2023-04-16T22:20:50.711Z,22.73
2023-04-16T22:23:17.716Z,24.88
2023-04-16T22:25:44.732Z,25.25
2023-04-16T22:28:11.560Z,24.48
2023-04-16T22:30:38.388Z,26.65
2023-04-16T22:33:05.495Z,23.98
2023-04-16T22:35:32.717Z,25.10
2023-04-16T22:37:59.563Z,27.60
2023-04-16T22:40:26.356Z,24.45
2023-04-16T22:42:53.261Z,28.40
2023-04-16T22:45:20.089Z,26.83
2023-04-16T22:47:46.969Z,28.23
2023-04-16T22:50:13.907Z,25.77
2023-04-16T22:52:40.692Z,26.55
2023-04-16T22:55:08.258Z,27.98
2023-04-16T22:57:35.117Z,26.52
2023-04-16T23:00:01.999Z,25.50
2023-04-16T23:02:28.889Z,27.00
2023-04-16T23:04:56.054Z,26.98
2023-04-16T23:07:22.905Z,28.23
2023-04-16T23:09:49.793Z,28.92
2023-04-16T23:12:16.673Z,27.23
2023-04-16T23:14:46.172Z,27.10
2023-04-16T23:17:13.813Z,27.08
2023-04-16T23:19:40.677Z,26.58
2023-04-16T23:22:07.669Z,27.02
2023-04-16T23:24:34.516Z,27.95
2023-04-16T23:27:01.459Z,27.25
2023-04-16T23:29:28.341Z,25.13
2023-04-16T23:31:55.187Z,27.55
2023-04-16T23:34:22.233Z,25.63
2023-04-16T23:36:49.053Z,27.88
2023-04-16T23:39:15.925Z,26.92
2023-04-16T23:41:42.698Z,27.55
2023-04-16T23:44:09.560Z,26.10
2023-04-16T23:46:36.376Z,27.27
2023-04-16T23:49:03.443Z,26.02
2023-04-16T23:51:31.561Z,24.15
2023-04-16T23:53:58.385Z,24.90
2023-04-16T23:56:25.403Z,25.60
2023-04-16T23:58:52.276Z,25.33
